Time;durP1;ratioP1;P1;durP2;ratioP2;P2;SDS_P1;SDS_P2;PMS_P1;PMS_P2;Temp;Humidity;BMP_temperature;BMP_pressure;BME280_temperature;BME280_humidity;BME280_pressure;Samples;Min_cycle;Max_cycle;Signal;HPM_P1;HPM_P2
2023/09/21 00:00:13;;;;;;;11.32;7.70;;;21.50;53.70;;;;;;5017929;28;20036;-67
2023/09/21 00:02:49;;;;;;;11.75;7.45;;;21.50;54.30;;;;;;5013950;28;20053;-68
2023/09/21 00:05:17;;;;;;;13.93;7.10;;;21.50;53.80;;;;;;5015265;28;20046;-68
2023/09/21 00:07:43;;;;;;;11.32;7.03;;;21.50;53.80;;;;;;5014010;28;20120;-67
2023/09/21 00:10:09;;;;;;;10.85;7.40;;;21.50;54.00;;;;;;5014097;28;20472;-68
2023/09/21 00:12:35;;;;;;;13.98;7.25;;;21.50;54.10;;;;;;5014117;28;20476;-68
2023/09/21 00:15:06;;;;;;;11.10;7.65;;;21.50;54.00;;;;;;5012603;28;20060;-69
2023/09/21 00:17:33;;;;;;;13.93;7.50;;;21.50;54.10;;;;;;5013700;28;20099;-68
2023/09/21 00:20:10;;;;;;;10.25;7.60;;;21.50;54.00;;;;;;5012377;28;20396;-68
2023/09/21 00:22:37;;;;;;;12.85;8.05;;;21.50;54.10;;;;;;5014156;28;20109;-68
2023/09/21 00:25:04;;;;;;;11.30;7.60;;;21.50;54.00;;;;;;5012499;28;20495;-68
2023/09/21 00:27:30;;;;;;;12.60;7.80;;;21.50;54.00;;;;;;5012430;28;20041;-68
2023/09/21 00:29:56;;;;;;;14.05;7.43;;;21.50;53.90;;;;;;5014152;28;20029;-68
2023/09/21 00:32:21;;;;;;;14.02;7.65;;;21.40;53.90;;;;;;5026220;28;20041;-67
2023/09/21 00:34:50;;;;;;;12.98;7.72;;;21.50;53.90;;;;;;5020206;28;20157;-68
2023/09/21 00:37:17;;;;;;;13.45;8.65;;;21.40;53.80;;;;;;5033535;28;20029;-67
2023/09/21 00:39:43;;;;;;;14.48;8.20;;;21.40;53.80;;;;;;5024411;28;20026;-67
2023/09/21 00:42:08;;;;;;;11.32;7.75;;;21.40;53.90;;;;;;5013753;28;20479;-69
2023/09/21 00:44:34;;;;;;;11.40;7.47;;;21.40;54.00;;;;;;5013533;28;20038;-68
2023/09/21 00:47:01;;;;;;;11.45;7.63;;;21.40;54.10;;;;;;5013630;28;20057;-68
2023/09/21 00:49:29;;;;;;;11.75;8.18;;;21.40;54.10;;;;;;5013627;28;20022;-68
2023/09/21 00:51:56;;;;;;;11.93;8.30;;;21.40;54.20;;;;;;5016633;28;20029;-68
2023/09/21 00:54:24;;;;;;;11.13;7.55;;;21.40;54.30;;;;;;5013346;28;20022;-68
2023/09/21 00:56:52;;;;;;;13.40;7.70;;;21.40;54.40;;;;;;5013380;28;20126;-68
2023/09/21 00:59:21;;;;;;;11.65;7.57;;;21.40;54.50;;;;;;5012297;28;20479;-68
2023/09/21 01:01:48;;;;;;;11.45;7.32;;;21.40;54.50;;;;;;5011983;28;20054;-68
2023/09/21 01:04:14;;;;;;;13.00;7.32;;;21.40;54.60;;;;;;5013924;28;20112;-67
2023/09/21 01:06:41;;;;;;;12.45;7.18;;;21.40;54.70;;;;;;5017023;28;20055;-68
2023/09/21 01:09:13;;;;;;;11.05;6.57;;;21.40;54.70;;;;;;5018078;28;20058;-67
2023/09/21 01:11:39;;;;;;;10.27;6.80;;;21.40;54.70;;;;;;5017232;28;20030;-68
2023/09/21 01:14:05;;;;;;;9.32;6.90;;;21.30;54.70;;;;;;5016649;28;20495;-69
2023/09/21 01:16:30;;;;;;;9.82;7.10;;;21.30;54.70;;;;;;5024226;28;20598;-67
2023/09/21 01:18:56;;;;;;;12.63;6.88;;;21.30;54.80;;;;;;5026321;28;20483;-68
2023/09/21 01:21:26;;;;;;;12.93;7.40;;;21.30;54.90;;;;;;5017246;28;20037;-68
2023/09/21 01:23:52;;;;;;;10.45;6.50;;;21.30;54.90;;;;;;5015715;28;20026;-68
2023/09/21 01:26:19;;;;;;;9.52;6.20;;;21.30;54.90;;;;;;5016496;28;20029;-68
2023/09/21 01:28:47;;;;;;;9.38;6.03;;;21.20;54.90;;;;;;5016452;28;20030;-68
2023/09/21 01:31:13;;;;;;;7.60;5.65;;;21.30;54.90;;;;;;5016722;28;20076;-68
2023/09/21 01:33:39;;;;;;;8.18;5.15;;;21.20;54.90;;;;;;5026331;28;20037;-68
2023/09/21 01:36:08;;;;;;;7.47;5.13;;;21.20;54.80;;;;;;5034561;28;20026;-68
2023/09/21 01:38:35;;;;;;;6.25;4.40;;;21.20;54.70;;;;;;5035064;28;20025;-68
2023/09/21 01:41:01;;;;;;;7.43;4.82;;;21.20;54.60;;;;;;5031739;28;20044;-68
2023/09/21 01:43:27;;;;;;;7.65;4.35;;;21.20;54.60;;;;;;5017293;28;20026;-68
2023/09/21 01:45:53;;;;;;;5.88;4.35;;;21.20;54.50;;;;;;5035309;28;20032;-68
2023/09/21 01:48:19;;;;;;;6.30;4.40;;;21.20;54.40;;;;;;5035360;28;20045;-68
2023/09/21 01:50:47;;;;;;;6.00;3.90;;;21.20;54.40;;;;;;5036067;28;20380;-68
2023/09/21 01:53:17;;;;;;;6.53;3.83;;;21.10;54.20;;;;;;5026687;28;20424;-68
2023/09/21 01:55:44;;;;;;;6.43;3.83;;;21.20;54.20;;;;;;5015793;28;20460;-69
2023/09/21 01:58:11;;;;;;;6.95;3.67;;;21.20;54.10;;;;;;5034325;28;20087;-68
2023/09/21 02:00:46;;;;;;;5.22;3.78;;;21.20;54.00;;;;;;5035881;28;20057;-68
2023/09/21 02:03:13;;;;;;;5.80;3.65;;;21.20;54.00;;;;;;5020757;28;20046;-68
2023/09/21 02:05:40;;;;;;;7.57;3.72;;;21.20;53.90;;;;;;5015821;28;20476;-68
2023/09/21 02:08:08;;;;;;;4.68;3.25;;;21.20;53.80;;;;;;5015777;28;20438;-68
2023/09/21 02:10:38;;;;;;;8.13;3.40;;;21.20;53.80;;;;;;5015878;28;20089;-68
2023/09/21 02:13:05;;;;;;;5.07;3.40;;;21.20;53.70;;;;;;5014799;28;20042;-70
2023/09/21 02:15:34;;;;;;;4.65;3.38;;;21.20;53.60;;;;;;5017672;28;20029;-68
2023/09/21 02:18:02;;;;;;;6.78;3.60;;;21.20;53.50;;;;;;5032322;28;20072;-69
2023/09/21 02:20:30;;;;;;;5.65;3.53;;;21.20;53.50;;;;;;5030668;28;20440;-69
2023/09/21 02:22:59;;;;;;;4.30;3.50;;;21.20;53.50;;;;;;5022927;28;20026;-68
2023/09/21 02:25:25;;;;;;;6.57;3.20;;;21.20;53.40;;;;;;5034632;28;20030;-68
2023/09/21 02:27:51;;;;;;;6.13;3.28;;;21.10;53.40;;;;;;5035042;28;20431;-68
2023/09/21 02:30:20;;;;;;;5.70;3.30;;;21.20;53.40;;;;;;5034893;28;20475;-68
2023/09/21 02:32:53;;;;;;;6.10;3.67;;;21.10;53.30;;;;;;5021609;28;20018;-67
2023/09/21 02:35:26;;;;;;;6.15;3.40;;;21.10;53.30;;;;;;5013824;28;20117;-68
2023/09/21 02:37:54;;;;;;;4.65;3.60;;;21.10;53.30;;;;;;5021481;28;20541;-68
2023/09/21 02:40:22;;;;;;;5.03;3.33;;;21.10;53.30;;;;;;5032593;28;20033;-70
2023/09/21 02:42:49;;;;;;;5.90;3.75;;;21.10;53.40;;;;;;5017111;28;20467;-67
2023/09/21 02:45:18;;;;;;;4.82;3.42;;;21.00;53.30;;;;;;5033426;28;20505;-68
2023/09/21 02:47:44;;;;;;;8.10;3.53;;;21.00;53.30;;;;;;5033553;28;20175;-68
2023/09/21 02:50:14;;;;;;;5.63;3.58;;;21.00;53.30;;;;;;5033703;28;20387;-69
2023/09/21 02:53:04;;;;;;;5.10;3.50;;;21.00;53.30;;;;;;5031938;28;20029;-71
2023/09/21 02:55:29;;;;;;;7.22;4.32;;;21.00;53.40;;;;;;5024164;28;20033;-68
2023/09/21 02:58:12;;;;;;;6.57;4.35;;;21.00;53.40;;;;;;5024655;28;20102;-67
2023/09/21 03:00:42;;;;;;;10.07;6.18;;;20.90;53.40;;;;;;5032302;28;20104;-68
2023/09/21 03:03:10;;;;;;;12.05;7.43;;;20.80;53.30;;;;;;5015393;28;20553;-67
2023/09/21 03:05:38;;;;;;;11.25;8.10;;;20.90;53.50;;;;;;5013296;28;20037;-68
2023/09/21 03:08:13;;;;;;;13.45;6.13;;;20.90;53.50;;;;;;5014688;28;20034;-68
2023/09/21 03:10:49;;;;;;;6.70;4.97;;;20.80;53.50;;;;;;5014635;28;20037;-68
2023/09/21 03:13:19;;;;;;;8.77;4.70;;;20.80;53.60;;;;;;5029995;28;20032;-68
2023/09/21 03:15:47;;;;;;;7.15;4.32;;;20.80;53.60;;;;;;5033650;28;20068;-69
2023/09/21 03:18:13;;;;;;;5.28;3.70;;;20.80;53.60;;;;;;5017845;28;20091;-68
2023/09/21 03:20:40;;;;;;;5.50;3.72;;;20.80;53.60;;;;;;5013862;28;20038;-68
2023/09/21 03:23:09;;;;;;;6.63;3.78;;;20.80;53.70;;;;;;5013247;28;20029;-68
2023/09/21 03:25:40;;;;;;;6.40;3.63;;;20.80;53.70;;;;;;5014137;28;20083;-67
2023/09/21 03:28:10;;;;;;;8.20;5.63;;;20.70;53.70;;;;;;5031762;28;20389;-67
2023/09/21 03:30:39;;;;;;;9.48;7.32;;;20.70;53.70;;;;;;5032132;28;20021;-68
2023/09/21 03:33:06;;;;;;;10.07;6.60;;;20.70;53.80;;;;;;5013203;28;20409;-68
2023/09/21 03:35:32;;;;;;;7.97;5.80;;;20.70;53.80;;;;;;5027998;28;20040;-70
2023/09/21 03:37:58;;;;;;;6.57;4.25;;;20.70;53.80;;;;;;5031100;28;20124;-68
2023/09/21 03:40:25;;;;;;;7.95;4.43;;;20.70;53.80;;;;;;5032200;28;20116;-68
2023/09/21 03:42:56;;;;;;;8.00;4.10;;;20.70;53.80;;;;;;5014265;28;20030;-67
2023/09/21 03:45:26;;;;;;;9.10;3.90;;;20.60;53.80;;;;;;5027661;28;20044;-68
2023/09/21 03:47:52;;;;;;;7.03;3.97;;;20.60;53.80;;;;;;5029980;28;20106;-67
2023/09/21 03:50:18;;;;;;;6.00;3.55;;;20.60;53.90;;;;;;5031868;28;20047;-68
2023/09/21 03:52:44;;;;;;;5.03;3.97;;;20.60;53.90;;;;;;5032934;28;20067;-68
2023/09/21 03:55:15;;;;;;;6.43;3.75;;;20.60;53.90;;;;;;5032173;28;20052;-68
2023/09/21 03:57:46;;;;;;;6.97;4.00;;;20.60;53.90;;;;;;5020877;28;20042;-67
2023/09/21 04:02:59;;;;;;;13.18;10.07;;;20.60;54.00;;;;;;5021551;28;20061;-68
2023/09/21 04:05:27;;;;;;;25.13;17.65;;;20.60;54.00;;;;;;5016616;28;20052;-68
2023/09/21 04:07:54;;;;;;;23.63;14.50;;;20.60;54.00;;;;;;5012602;28;20403;-68
2023/09/21 04:10:20;;;;;;;12.65;9.60;;;20.70;54.10;;;;;;5021904;28;20034;-68
2023/09/21 04:12:46;;;;;;;13.05;8.13;;;20.70;54.10;;;;;;5029026;28;20029;-68
2023/09/21 04:15:12;;;;;;;11.07;6.45;;;20.70;54.10;;;;;;5019946;28;20026;-70
2023/09/21 04:17:41;;;;;;;7.40;5.35;;;20.70;54.10;;;;;;5023866;28;20040;-69
2023/09/21 04:20:15;;;;;;;6.75;4.90;;;20.70;54.10;;;;;;5025224;28;20073;-68
2023/09/21 04:22:42;;;;;;;;;;;20.70;54.10;;;;;;5033322;28;20472;-69
2023/09/21 04:25:09;;;;;;;6.10;4.07;;;20.70;54.30;;;;;;5018784;28;19912;-69
2023/09/21 04:27:40;;;;;;;5.13;4.28;;;20.80;54.20;;;;;;5017287;28;20033;-69
2023/09/21 04:30:17;;;;;;;5.43;4.00;;;20.80;54.10;;;;;;5014408;28;20021;-69
2023/09/21 04:32:46;;;;;;;5.72;3.65;;;20.80;54.10;;;;;;5015036;28;20460;-72
2023/09/21 04:35:13;;;;;;;7.05;3.80;;;20.80;54.10;;;;;;5031473;28;20109;-69
2023/09/21 04:37:39;;;;;;;7.18;3.58;;;20.90;54.20;;;;;;5017356;28;20034;-71
2023/09/21 04:40:09;;;;;;;5.15;3.70;;;20.80;54.20;;;;;;5021495;28;20040;-74
2023/09/21 04:42:35;;;;;;;7.78;3.60;;;20.90;54.20;;;;;;5036882;28;20090;-72
2023/09/21 04:45:01;;;;;;;7.32;3.50;;;20.90;54.20;;;;;;5027291;28;20026;-72
2023/09/21 04:47:27;;;;;;;5.32;3.13;;;21.00;54.20;;;;;;5028728;28;20163;-75
2023/09/21 04:49:56;;;;;;;4.13;3.35;;;20.90;54.20;;;;;;5036763;28;20064;-71
2023/09/21 04:52:22;;;;;;;5.35;3.17;;;21.00;54.20;;;;;;5035962;28;20064;-72
2023/09/21 04:54:51;;;;;;;4.15;3.30;;;21.00;54.20;;;;;;5035019;28;20033;-72
2023/09/21 04:57:18;;;;;;;4.57;3.08;;;21.10;54.20;;;;;;5029779;28;20486;-70
2023/09/21 04:59:44;;;;;;;7.72;3.17;;;21.10;54.20;;;;;;5017849;28;20111;-68
2023/09/21 05:02:09;;;;;;;6.70;3.15;;;21.10;54.20;;;;;;5021408;28;20092;-69
2023/09/21 05:04:35;;;;;;;4.93;3.17;;;21.10;54.20;;;;;;5018147;28;20026;-70
2023/09/21 05:07:01;;;;;;;14.57;8.80;;;21.20;54.20;;;;;;5018106;28;20034;-69
2023/09/21 05:09:27;;;;;;;7.80;5.20;;;21.20;54.60;;;;;;5022095;28;20502;-72
2023/09/21 05:11:53;;;;;;;9.10;5.30;;;21.30;55.00;;;;;;5017047;28;20140;-73
2023/09/21 05:14:21;;;;;;;11.40;5.55;;;21.30;55.00;;;;;;5029365;28;20376;-74
2023/09/21 05:16:47;;;;;;;9.57;5.30;;;21.40;55.20;;;;;;5036159;28;20124;-75
2023/09/21 05:19:13;;;;;;;6.95;4.30;;;21.50;55.30;;;;;;5041098;28;20037;-75
2023/09/21 05:21:40;;;;;;;6.85;4.80;;;21.60;55.30;;;;;;5037129;28;20035;-72
2023/09/21 05:24:07;;;;;;;9.50;4.57;;;21.60;55.30;;;;;;5039045;28;20021;-77
2023/09/21 05:26:33;;;;;;;7.15;4.70;;;21.70;55.30;;;;;;5041947;28;20024;-74
2023/09/21 05:28:59;;;;;;;6.85;3.80;;;21.80;55.30;;;;;;5045370;28;20032;-72
2023/09/21 05:31:24;;;;;;;8.18;4.53;;;21.80;55.30;;;;;;5035885;28;20029;-72
2023/09/21 05:33:50;;;;;;;7.43;4.57;;;21.90;55.40;;;;;;5044732;28;20032;-72
2023/09/21 05:36:15;;;;;;;4.70;3.60;;;22.00;55.50;;;;;;5040132;28;20029;-73
2023/09/21 05:38:41;;;;;;;5.95;4.03;;;22.00;55.40;;;;;;5040923;28;20024;-72
2023/09/21 05:41:07;;;;;;;11.38;5.55;;;22.10;55.20;;;;;;5042008;28;20029;-70
2023/09/21 05:43:32;;;;;;;5.28;3.90;;;22.20;55.20;;;;;;5041175;28;20025;-76
2023/09/21 05:45:58;;;;;;;6.28;3.90;;;22.20;55.30;;;;;;5046024;28;20028;-71
2023/09/21 05:48:24;;;;;;;7.50;3.70;;;22.30;55.30;;;;;;5046606;28;20035;-71
2023/09/21 05:50:49;;;;;;;5.50;3.63;;;22.40;55.30;;;;;;5043141;28;20029;-69
2023/09/21 05:53:16;;;;;;;6.65;3.70;;;22.40;55.20;;;;;;5044619;28;20024;-71
2023/09/21 05:55:45;;;;;;;5.10;3.80;;;22.50;55.10;;;;;;5040630;28;20041;-70
2023/09/21 05:58:11;;;;;;;6.13;3.67;;;22.60;55.20;;;;;;5043938;28;20037;-70
2023/09/21 06:00:36;;;;;;;6.97;3.65;;;22.70;55.00;;;;;;5041997;28;20110;-71
2023/09/21 06:03:02;;;;;;;6.32;3.63;;;22.70;54.80;;;;;;5039388;28;20500;-71
2023/09/21 06:05:31;;;;;;;4.78;3.42;;;22.80;54.80;;;;;;5041541;28;20029;-71
2023/09/21 06:07:58;;;;;;;5.45;3.60;;;22.80;54.70;;;;;;5041772;28;20068;-72
2023/09/21 06:10:24;;;;;;;5.72;3.25;;;22.90;54.70;;;;;;5041506;28;20033;-71
2023/09/21 06:12:52;;;;;;;6.53;3.17;;;22.90;54.60;;;;;;5043593;28;20029;-72
2023/09/21 06:15:18;;;;;;;5.95;3.50;;;23.00;54.50;;;;;;5037317;28;20056;-72
2023/09/21 06:17:46;;;;;;;6.03;3.28;;;23.10;54.50;;;;;;5045753;28;20425;-69
2023/09/21 06:20:12;;;;;;;5.40;3.70;;;23.10;54.70;;;;;;5045009;28;20018;-69
2023/09/21 06:22:37;;;;;;;6.78;3.63;;;23.10;54.40;;;;;;5043321;28;20047;-71
2023/09/21 06:25:06;;;;;;;4.80;3.40;;;23.20;54.30;;;;;;5040698;28;20523;-70
2023/09/21 06:27:32;;;;;;;5.55;3.60;;;23.30;54.30;;;;;;5042995;28;20116;-71
2023/09/21 06:29:58;;;;;;;3.95;2.97;;;23.30;54.20;;;;;;5040429;28;20032;-71
2023/09/21 06:32:24;;;;;;;6.60;2.92;;;23.30;54.10;;;;;;5037874;28;20075;-72
2023/09/21 06:34:51;;;;;;;4.97;3.45;;;23.40;54.10;;;;;;5040140;28;20094;-72
2023/09/21 06:37:19;;;;;;;5.20;3.22;;;23.40;54.10;;;;;;5042623;28;20116;-72
2023/09/21 06:39:45;;;;;;;3.90;3.10;;;23.50;54.10;;;;;;5039998;28;20493;-73
2023/09/21 06:42:11;;;;;;;5.80;2.95;;;23.50;54.00;;;;;;5046468;28;20052;-71
2023/09/21 06:44:36;;;;;;;4.45;2.83;;;23.60;54.00;;;;;;5043701;28;20057;-70
2023/09/21 06:47:03;;;;;;;5.07;3.25;;;23.60;53.90;;;;;;5043352;28;20044;-69
2023/09/21 06:49:29;;;;;;;4.80;3.20;;;23.60;53.90;;;;;;5043797;28;20036;-70
2023/09/21 06:51:56;;;;;;;5.65;3.45;;;23.60;53.90;;;;;;5042155;28;20029;-69
2023/09/21 06:54:23;;;;;;;5.05;2.85;;;23.70;53.90;;;;;;5040680;28;20033;-71
2023/09/21 06:56:49;;;;;;;6.60;3.20;;;23.70;53.90;;;;;;5041895;28;20067;-70
2023/09/21 06:59:15;;;;;;;4.25;2.95;;;23.70;53.80;;;;;;5040579;28;20061;-70
2023/09/21 07:01:40;;;;;;;3.78;2.95;;;23.80;53.90;;;;;;5040113;28;20132;-70
2023/09/21 07:04:07;;;;;;;3.67;2.80;;;23.80;53.80;;;;;;5040685;28;20030;-72
2023/09/21 07:06:33;;;;;;;4.13;2.72;;;23.90;53.90;;;;;;5041880;28;20063;-70
2023/09/21 07:09:00;;;;;;;3.60;2.67;;;23.90;53.90;;;;;;5034456;28;20029;-70
2023/09/21 07:11:26;;;;;;;3.80;2.90;;;23.90;53.90;;;;;;5040049;28;20029;-70
2023/09/21 07:13:52;;;;;;;4.70;2.70;;;23.90;53.90;;;;;;5037798;28;20452;-71
2023/09/21 07:16:21;;;;;;;3.58;2.88;;;23.90;54.00;;;;;;5034657;28;20075;-69
2023/09/21 07:18:47;;;;;;;3.40;2.58;;;23.90;54.00;;;;;;5041013;28;20021;-69
2023/09/21 07:21:14;;;;;;;6.05;2.90;;;24.00;54.00;;;;;;5041935;28;20040;-70
2023/09/21 07:23:42;;;;;;;2.97;2.50;;;24.00;54.10;;;;;;5036771;28;20104;-70
2023/09/21 07:26:08;;;;;;;5.95;2.80;;;24.00;54.80;;;;;;5034992;28;20029;-72
2023/09/21 07:28:34;;;;;;;3.97;2.38;;;24.00;54.30;;;;;;5037709;28;20406;-73
2023/09/21 07:31:01;;;;;;;4.57;2.70;;;24.10;54.40;;;;;;5041800;28;20078;-71
2023/09/21 07:33:30;;;;;;;3.35;2.30;;;24.10;54.50;;;;;;5036609;28;20396;-77
2023/09/21 07:35:56;;;;;;;3.75;2.50;;;24.10;54.50;;;;;;5040269;28;20021;-75
2023/09/21 07:38:23;;;;;;;5.65;2.70;;;24.20;54.60;;;;;;5024133;28;20038;-76
2023/09/21 07:40:49;;;;;;;3.83;2.40;;;24.20;54.60;;;;;;5040635;28;20436;-77
2023/09/21 07:43:15;;;;;;;4.07;2.50;;;24.20;54.60;;;;;;5041180;28;20390;-76
2023/09/21 07:45:40;;;;;;;10.63;6.03;;;24.30;54.70;;;;;;5043684;28;20028;-76
2023/09/21 07:48:06;;;;;;;4.00;2.42;;;24.30;54.70;;;;;;5042338;28;20025;-77
2023/09/21 07:50:34;;;;;;;3.60;2.40;;;24.30;54.70;;;;;;5042314;28;20459;-77
2023/09/21 07:53:03;;;;;;;4.15;2.42;;;24.40;54.70;;;;;;5042473;28;20021;-77
2023/09/21 07:55:30;;;;;;;5.47;2.40;;;24.40;54.70;;;;;;5039656;28;20112;-77
2023/09/21 07:57:56;;;;;;;2.40;2.20;;;24.40;54.60;;;;;;5042747;28;20029;-76
2023/09/21 08:00:21;;;;;;;2.85;2.17;;;24.40;54.60;;;;;;5043008;28;20025;-78
2023/09/21 08:02:47;;;;;;;3.03;1.95;;;24.50;54.60;;;;;;5042382;28;20045;-78
2023/09/21 08:05:13;;;;;;;2.25;2.05;;;24.50;54.60;;;;;;5042164;28;20025;-79
2023/09/21 08:07:40;;;;;;;3.90;2.05;;;24.60;54.50;;;;;;5042849;28;20025;-77
2023/09/21 08:10:07;;;;;;;2.75;2.25;;;24.60;54.40;;;;;;5042378;28;20063;-78
2023/09/21 08:12:40;;;;;;;3.70;2.10;;;24.60;54.40;;;;;;5042667;28;20104;-79
2023/09/21 08:15:06;;;;;;;2.45;2.22;;;24.60;54.30;;;;;;5040263;28;20021;-79
2023/09/21 08:17:32;;;;;;;3.30;2.40;;;24.60;54.30;;;;;;5043924;28;20040;-78
2023/09/21 08:19:59;;;;;;;2.78;2.30;;;24.60;54.30;;;;;;5040305;28;20026;-76
2023/09/21 08:22:27;;;;;;;3.17;2.17;;;24.70;54.30;;;;;;5044557;28;20464;-77
2023/09/21 08:24:53;;;;;;;3.25;1.90;;;24.70;54.20;;;;;;5041692;28;20029;-76
2023/09/21 08:27:19;;;;;;;2.88;2.22;;;24.70;54.00;;;;;;5043258;28;20028;-76
2023/09/21 08:29:44;;;;;;;4.88;2.30;;;24.70;53.90;;;;;;5042796;28;20029;-74
2023/09/21 08:32:10;;;;;;;2.63;2.08;;;24.80;53.80;;;;;;5038993;28;20083;-74
2023/09/21 08:34:36;;;;;;;3.75;2.40;;;24.80;53.80;;;;;;5038327;28;20395;-74
2023/09/21 08:37:02;;;;;;;3.05;2.40;;;24.70;53.70;;;;;;5037471;28;20041;-75
2023/09/21 08:39:28;;;;;;;3.50;2.00;;;24.80;53.60;;;;;;5021549;28;20022;-74
2023/09/21 08:41:54;;;;;;;3.83;2.15;;;24.80;53.50;;;;;;5031127;28;20038;-75
2023/09/21 08:44:20;;;;;;;4.88;2.40;;;24.80;53.40;;;;;;5032630;28;20097;-75
2023/09/21 08:46:50;;;;;;;3.90;2.20;;;24.70;53.30;;;;;;5033342;28;20135;-75
2023/09/21 08:49:16;;;;;;;4.82;2.53;;;24.70;53.30;;;;;;5033332;28;20018;-77
2023/09/21 08:51:42;;;;;;;3.47;2.40;;;24.70;53.30;;;;;;5032137;28;20034;-75
2023/09/21 08:54:08;;;;;;;4.60;2.45;;;24.70;53.30;;;;;;5020065;28;20518;-77
2023/09/21 08:56:36;;;;;;;6.53;2.80;;;24.70;53.20;;;;;;5031839;28;20030;-77
2023/09/21 08:59:04;;;;;;;5.57;2.75;;;24.70;53.30;;;;;;5033087;28;20053;-75
2023/09/21 09:01:30;;;;;;;5.30;2.63;;;24.70;53.30;;;;;;5032766;28;20040;-76
2023/09/21 09:03:57;;;;;;;4.75;2.50;;;24.70;53.30;;;;;;5033311;28;20053;-76
2023/09/21 09:06:23;;;;;;;3.10;2.50;;;24.70;53.10;;;;;;5033453;28;20030;-76
2023/09/21 09:08:49;;;;;;;4.57;2.38;;;24.70;52.90;;;;;;5033380;28;20104;-77
2023/09/21 09:11:45;;;;;;;6.30;2.95;;;24.70;52.90;;;;;;5031221;28;20137;-75
2023/09/21 09:14:22;;;;;;;4.28;2.47;;;24.70;52.70;;;;;;5032337;28;20033;-75
2023/09/21 09:16:49;;;;;;;4.55;2.47;;;24.70;52.70;;;;;;5032855;28;20065;-77
2023/09/21 09:19:15;;;;;;;4.55;2.40;;;24.70;52.50;;;;;;5032879;28;20108;-77
2023/09/21 09:21:41;;;;;;;5.13;2.45;;;24.70;52.40;;;;;;5032326;28;20029;-76
2023/09/21 09:24:08;;;;;;;4.53;2.70;;;24.70;52.30;;;;;;5029991;28;20539;-77
2023/09/21 09:26:38;;;;;;;5.38;2.90;;;24.70;52.20;;;;;;5035312;28;20177;-77
2023/09/21 09:29:04;;;;;;;4.40;2.38;;;24.70;52.30;;;;;;5035125;28;20032;-77
2023/09/21 09:31:30;;;;;;;5.13;2.40;;;24.70;52.30;;;;;;5034810;28;20427;-77
2023/09/21 09:33:57;;;;;;;3.85;2.55;;;24.70;52.40;;;;;;5036286;28;20113;-76
2023/09/21 09:36:24;;;;;;;3.92;2.47;;;24.70;52.40;;;;;;5036000;28;20033;-76
2023/09/21 09:38:50;;;;;;;4.53;2.72;;;24.80;52.50;;;;;;5036553;28;20057;-77
2023/09/21 09:41:18;;;;;;;4.20;2.50;;;24.80;52.50;;;;;;5034688;28;20059;-76
2023/09/21 09:43:50;;;;;;;4.22;2.53;;;24.80;52.60;;;;;;5034849;28;20021;-77
2023/09/21 09:46:19;;;;;;;3.28;2.42;;;24.80;52.70;;;;;;5034832;28;20541;-77
2023/09/21 09:48:47;;;;;;;5.53;2.53;;;24.80;52.70;;;;;;5036304;28;20033;-77
2023/09/21 09:51:18;;;;;;;3.80;2.47;;;24.90;52.80;;;;;;5034777;28;20053;-77
2023/09/21 09:53:47;;;;;;;3.72;2.35;;;24.90;52.80;;;;;;5036457;28;20412;-76
2023/09/21 09:56:14;;;;;;;3.30;2.30;;;24.90;52.80;;;;;;5034213;28;20029;-76
2023/09/21 09:58:42;;;;;;;3.75;2.22;;;24.90;52.70;;;;;;5034867;28;20045;-76
2023/09/21 10:01:12;;;;;;;2.92;2.10;;;24.90;52.70;;;;;;5034311;28;20032;-75
2023/09/21 10:03:43;;;;;;;3.15;2.40;;;24.90;52.80;;;;;;5034483;28;20077;-75
2023/09/21 10:06:09;;;;;;;4.43;2.53;;;25.00;52.90;;;;;;5035677;28;20018;-75
2023/09/21 10:08:39;;;;;;;3.13;2.33;;;25.00;52.80;;;;;;5035649;28;20388;-76
2023/09/21 10:11:09;;;;;;;4.40;2.42;;;25.10;52.80;;;;;;5035452;28;20030;-76
2023/09/21 10:13:35;;;;;;;3.53;2.60;;;25.00;52.70;;;;;;5035665;28;20083;-76
2023/09/21 10:16:05;;;;;;;3.80;2.30;;;25.10;52.70;;;;;;5035348;28;20527;-76
2023/09/21 10:18:40;;;;;;;3.05;2.10;;;25.10;52.70;;;;;;5035175;28;20483;-75
2023/09/21 10:21:23;;;;;;;2.40;2.13;;;25.10;52.60;;;;;;5035285;28;20041;-76
2023/09/21 10:24:14;;;;;;;3.83;2.20;;;25.10;52.50;;;;;;5035300;28;20029;-75
2023/09/21 10:26:45;;;;;;;3.08;2.17;;;25.10;52.20;;;;;;5034111;28;20030;-76
2023/09/21 10:29:14;;;;;;;2.70;2.22;;;25.10;52.10;;;;;;5033871;28;20036;-76
2023/09/21 10:31:44;;;;;;;3.28;2.20;;;25.10;52.10;;;;;;5035156;28;20021;-76
2023/09/21 10:34:18;;;;;;;2.75;2.08;;;25.20;52.10;;;;;;5034492;28;20026;-76
2023/09/21 10:36:49;;;;;;;2.38;2.17;;;25.20;52.10;;;;;;5034677;28;20046;-76
2023/09/21 10:39:26;;;;;;;3.33;2.10;;;25.20;52.10;;;;;;5034827;28;20077;-75
2023/09/21 10:41:55;;;;;;;2.80;2.30;;;25.20;52.10;;;;;;5035246;28;20357;-76
2023/09/21 10:44:52;;;;;;;2.28;2.08;;;25.10;52.00;;;;;;5033942;28;20025;-76
2023/09/21 10:47:33;;;;;;;2.40;2.10;;;25.20;52.00;;;;;;5034813;28;20132;-76
2023/09/21 10:50:10;;;;;;;2.60;2.28;;;25.20;52.00;;;;;;5032100;28;20029;-76
2023/09/21 10:52:41;;;;;;;4.13;2.55;;;25.20;52.00;;;;;;5034865;28;20379;-76
2023/09/21 10:55:09;;;;;;;2.17;1.98;;;25.10;51.80;;;;;;5034401;28;20459;-76
2023/09/21 10:57:35;;;;;;;2.78;2.10;;;25.10;51.80;;;;;;5033192;28;20065;-75
2023/09/21 11:00:05;;;;;;;3.53;2.38;;;25.20;51.70;;;;;;5020138;28;20041;-76
2023/09/21 11:02:31;;;;;;;3.72;2.30;;;25.20;51.60;;;;;;5014494;28;20050;-75
2023/09/21 11:04:58;;;;;;;2.45;2.25;;;25.20;51.40;;;;;;5014846;28;20022;-75
2023/09/21 11:07:24;;;;;;;2.85;2.20;;;25.20;51.20;;;;;;5014811;28;20022;-75
2023/09/21 11:09:50;;;;;;;2.45;2.20;;;25.30;51.10;;;;;;5018771;28;20038;-76
2023/09/21 11:12:17;;;;;;;4.85;2.40;;;25.30;50.90;;;;;;5033180;28;20025;-75
2023/09/21 11:14:48;;;;;;;2.15;1.95;;;25.30;50.70;;;;;;5034667;28;20024;-75
2023/09/21 11:17:18;;;;;;;2.30;2.10;;;25.30;50.50;;;;;;5034099;28;20391;-76
2023/09/21 11:19:45;;;;;;;2.38;2.17;;;25.30;50.50;;;;;;5021681;28;20072;-75
2023/09/21 11:22:13;;;;;;;2.70;2.13;;;25.40;50.50;;;;;;5023567;28;20487;-76
2023/09/21 11:24:39;;;;;;;3.05;2.30;;;25.40;50.80;;;;;;5033731;28;20038;-76
2023/09/21 11:27:09;;;;;;;2.30;2.10;;;25.40;50.40;;;;;;5034529;28;20034;-76
2023/09/21 11:29:39;;;;;;;3.05;2.10;;;25.40;50.30;;;;;;5032211;28;20044;-76
2023/09/21 11:32:09;;;;;;;2.30;2.10;;;25.40;50.20;;;;;;5034042;28;20084;-76
2023/09/21 11:34:36;;;;;;;4.18;2.42;;;25.50;50.80;;;;;;5034153;28;20033;-75
2023/09/21 11:37:05;;;;;;;2.47;1.90;;;25.50;50.00;;;;;;5033982;28;20065;-74
2023/09/21 11:39:31;;;;;;;2.30;2.10;;;25.50;49.90;;;;;;5031110;28;20422;-74
2023/09/21 11:41:57;;;;;;;3.70;2.22;;;25.50;49.90;;;;;;5033945;28;20037;-75
2023/09/21 11:44:28;;;;;;;2.75;2.10;;;25.50;49.90;;;;;;5033993;28;20029;-75
2023/09/21 11:46:57;;;;;;;5.35;2.33;;;25.50;49.90;;;;;;5034319;28;20109;-75
2023/09/21 11:49:39;;;;;;;2.38;2.17;;;25.50;49.70;;;;;;5033161;28;20029;-75
2023/09/21 11:52:05;;;;;;;4.65;2.35;;;25.60;49.80;;;;;;5033575;28;20375;-75
2023/09/21 11:54:35;;;;;;;3.17;2.10;;;25.60;49.60;;;;;;5032120;28;20029;-75
2023/09/21 11:57:03;;;;;;;2.30;1.98;;;25.60;49.50;;;;;;5032475;28;20060;-75
2023/09/21 11:59:31;;;;;;;2.38;2.17;;;25.60;49.50;;;;;;5032105;28;20029;-75
2023/09/21 12:01:59;;;;;;;3.03;2.10;;;25.60;49.30;;;;;;5033653;28;20049;-75
2023/09/21 12:04:28;;;;;;;3.10;2.40;;;25.60;49.30;;;;;;5033177;28;20060;-75
2023/09/21 12:06:55;;;;;;;2.25;2.00;;;25.60;49.20;;;;;;5033533;28;20464;-74
2023/09/21 12:09:21;;;;;;;2.47;2.28;;;25.60;49.10;;;;;;5032015;28;20153;-74
2023/09/21 12:11:49;;;;;;;2.40;2.20;;;25.60;49.10;;;;;;5032326;28;20025;-75
2023/09/21 12:14:14;;;;;;;2.05;1.95;;;25.60;49.00;;;;;;5033400;28;20029;-75
2023/09/21 12:16:40;;;;;;;2.72;2.28;;;25.60;49.00;;;;;;5033370;28;20033;-75
2023/09/21 12:19:08;;;;;;;2.40;2.20;;;25.60;48.90;;;;;;5031433;28;20147;-74
2023/09/21 12:21:34;;;;;;;2.40;2.20;;;25.60;48.80;;;;;;5033588;28;20026;-75
2023/09/21 12:24:02;;;;;;;2.45;2.25;;;25.60;48.80;;;;;;5032343;28;20368;-75
2023/09/21 12:26:28;;;;;;;2.75;2.38;;;25.60;48.80;;;;;;5033012;28;20032;-74
2023/09/21 12:28:54;;;;;;;2.55;2.30;;;25.60;48.70;;;;;;5033138;28;20029;-75
2023/09/21 12:31:22;;;;;;;3.33;2.42;;;25.70;48.60;;;;;;5031800;28;20030;-74
2023/09/21 12:33:50;;;;;;;2.42;2.22;;;25.70;48.50;;;;;;5033510;28;20029;-75
2023/09/21 12:36:16;;;;;;;2.47;2.00;;;25.70;48.30;;;;;;5031932;28;20108;-74
2023/09/21 12:38:42;;;;;;;2.33;2.13;;;25.80;48.30;;;;;;5033181;28;20065;-74
2023/09/21 12:41:09;;;;;;;2.38;2.17;;;25.80;48.20;;;;;;5032939;28;20060;-74
2023/09/21 12:43:38;;;;;;;3.25;2.20;;;25.80;48.10;;;;;;5033136;28;20379;-74
2023/09/21 12:46:08;;;;;;;2.50;2.30;;;25.90;48.10;;;;;;5031311;28;20503;-74
2023/09/21 12:48:38;;;;;;;2.70;2.13;;;25.90;48.00;;;;;;5033515;28;20025;-75
2023/09/21 12:51:03;;;;;;;4.15;2.40;;;25.90;48.00;;;;;;5031983;28;20081;-75